createdAt,value
2022-08-11T00:02:29.419Z,101711.69
2022-08-11T00:05:02.266Z,101710.50
2022-08-11T00:07:30.939Z,101710.13
2022-08-11T00:10:01.311Z,101718.03
2022-08-11T00:12:29.736Z,101711.25
2022-08-11T00:14:59.836Z,101707.53
2022-08-11T00:17:29.368Z,101713.38
2022-08-11T00:20:12.300Z,101716.56
2022-08-11T00:22:45.895Z,101706.41
2022-08-11T00:25:17.754Z,101710.28
2022-08-11T00:27:47.015Z,101709.88
2022-08-11T00:30:16.227Z,101708.69
2022-08-11T00:32:47.124Z,101710.16
2022-08-11T00:35:54.133Z,101709.78
2022-08-11T00:38:08.266Z,101713.09
2022-08-11T00:40:52.136Z,101722.63
2022-08-11T00:43:24.766Z,101710.81
2022-08-11T00:46:17.193Z,101713.97
2022-08-11T00:49:00.688Z,101715.44
2022-08-11T00:51:56.773Z,101716.91
2022-08-11T00:54:59.993Z,101712.16
2022-08-11T00:58:06.100Z,101712.66
2022-08-11T01:00:45.091Z,101722.84
2022-08-11T01:03:21.569Z,101718.63
2022-08-11T01:06:18.320Z,101716.56
2022-08-11T01:09:30.083Z,101720.72
2022-08-11T01:12:32.583Z,101714.09
2022-08-11T01:15:33.865Z,101720.94
2022-08-11T01:18:46.158Z,101714.31
2022-08-11T01:22:01.257Z,101724.66
2022-08-11T01:25:03.595Z,101720.72
2022-08-11T01:28:00.806Z,101719.50
2022-08-11T01:31:03.508Z,101722.63
2022-08-11T01:34:17.208Z,101720.38
2022-08-11T01:37:13.455Z,101721.81
2022-08-11T01:40:20.585Z,101726.84
2022-08-11T01:43:45.994Z,101720.22
2022-08-11T01:46:22.343Z,101712.75
2022-08-11T01:48:58.026Z,101713.03
2022-08-11T01:51:43.222Z,101717.88
2022-08-11T01:54:25.627Z,101721.00
2022-08-11T01:57:04.239Z,101722.28
2022-08-11T01:59:38.408Z,101717.34
2022-08-11T02:02:52.003Z,101719.50
2022-08-11T02:05:30.127Z,101713.75
2022-08-11T02:08:05.849Z,101715.00
2022-08-11T02:11:02.284Z,101718.84
2022-08-11T02:13:42.518Z,101719.28
2022-08-11T02:16:22.416Z,101714.19
2022-08-11T02:19:13.661Z,101717.34
2022-08-11T02:22:08.361Z,101723.13
2022-08-11T02:24:45.720Z,101724.41
2022-08-11T02:27:23.118Z,101723.03
2022-08-11T02:30:04.887Z,101720.34
2022-08-11T02:32:57.339Z,101717.94
2022-08-11T02:35:28.352Z,101725.00
2022-08-11T02:38:09.640Z,101718.19
2022-08-11T02:40:53.349Z,101715.81
2022-08-11T02:43:48.040Z,101717.81
2022-08-11T02:46:27.827Z,101725.13
2022-08-11T02:49:19.251Z,101717.50
2022-08-11T02:52:04.324Z,101721.19
2022-08-11T02:54:39.009Z,101723.31
2022-08-11T02:57:14.093Z,101729.69
2022-08-11T02:59:51.404Z,101724.59
2022-08-11T03:02:31.491Z,101720.22
2022-08-11T03:05:11.864Z,101728.53
2022-08-11T03:08:01.910Z,101726.00
2022-08-11T03:10:35.780Z,101724.47
2022-08-11T03:13:33.509Z,101729.09
2022-08-11T03:16:32.260Z,101727.56
2022-08-11T03:19:09.438Z,101728.69
2022-08-11T03:22:03.083Z,101735.34
2022-08-11T03:24:43.383Z,101735.50
2022-08-11T03:27:24.960Z,101727.56
2022-08-11T03:30:07.191Z,101726.88
2022-08-11T03:32:43.564Z,101726.19
2022-08-11T03:35:21.299Z,101729.81
2022-08-11T03:37:57.617Z,101737.16
2022-08-11T03:40:59.546Z,101732.94
2022-08-11T03:43:57.986Z,101733.22
2022-08-11T03:46:39.576Z,101738.03
2022-08-11T03:49:24.238Z,101734.63
2022-08-11T03:51:57.475Z,101728.72
2022-08-11T03:54:34.063Z,101725.31
2022-08-11T03:57:51.111Z,101732.50
2022-08-11T04:00:41.310Z,101722.09
2022-08-11T04:03:54.229Z,101727.72
2022-08-11T04:06:47.434Z,101730.69
2022-08-11T04:09:59.233Z,101726.28
2022-08-11T04:13:10.658Z,101716.72
2022-08-11T04:16:12.555Z,101721.38
2022-08-11T04:19:24.092Z,101721.78
2022-08-11T04:22:32.588Z,101722.78
2022-08-11T04:25:17.682Z,101722.88
2022-08-11T04:28:18.899Z,101723.03
2022-08-11T04:31:10.305Z,101718.53
2022-08-11T04:34:08.115Z,101717.69
2022-08-11T04:37:04.651Z,101708.81
2022-08-11T04:39:50.345Z,101715.84
2022-08-11T04:43:23.331Z,101717.53
2022-08-11T04:46:09.701Z,101719.09
2022-08-11T04:49:25.562Z,101716.56
2022-08-11T04:52:47.342Z,101721.09
2022-08-11T04:56:01.253Z,101720.94
2022-08-11T04:59:06.328Z,101724.31
2022-08-11T05:01:47.181Z,101717.97
2022-08-11T05:04:47.015Z,101709.66
2022-08-11T05:07:59.726Z,101723.59
2022-08-11T05:10:49.312Z,101716.31
2022-08-11T05:13:49.056Z,101715.16
2022-08-11T05:16:38.438Z,101720.25
2022-08-11T05:19:23.930Z,101719.81
2022-08-11T05:22:13.075Z,101724.91
2022-08-11T05:25:03.046Z,101726.31
2022-08-11T05:27:54.869Z,101713.47
2022-08-11T05:30:46.715Z,101723.63
2022-08-11T05:33:39.721Z,101727.56
2022-08-11T05:36:13.577Z,101726.16
2022-08-11T05:39:08.533Z,101717.53
2022-08-11T05:41:54.130Z,101725.00
2022-08-11T05:44:41.241Z,101730.53
2022-08-11T05:47:27.535Z,101725.13
2022-08-11T05:50:13.516Z,101719.75
2022-08-11T05:53:04.782Z,101719.03
2022-08-11T05:56:02.268Z,101735.66
2022-08-11T05:58:41.369Z,101724.63
2022-08-11T06:01:12.868Z,101720.03
2022-08-11T06:03:59.635Z,101726.06
2022-08-11T06:06:29.225Z,101725.03
2022-08-11T06:08:58.729Z,101729.38
2022-08-11T06:11:43.578Z,101731.69
2022-08-11T06:14:13.379Z,101734.00
2022-08-11T06:16:44.239Z,101727.44
2022-08-11T06:19:13.059Z,101725.94
2022-08-11T06:21:46.394Z,101724.06
2022-08-11T06:24:15.014Z,101723.06
2022-08-11T06:27:10.727Z,101731.31
2022-08-11T06:29:47.627Z,101718.56
2022-08-11T06:32:18.762Z,101720.75
2022-08-11T06:35:10.997Z,101725.22
2022-08-11T06:37:58.701Z,101722.75
2022-08-11T06:40:36.534Z,101719.16
2022-08-11T06:43:12.711Z,101716.97
2022-08-11T06:45:47.928Z,101721.50
2022-08-11T06:48:20.082Z,101719.81
2022-08-11T06:51:09.997Z,101716.28
2022-08-11T06:53:43.486Z,101720.22
2022-08-11T06:57:12.156Z,101713.56
2022-08-11T06:59:58.352Z,101719.69
2022-08-11T07:02:33.572Z,101716.69
2022-08-11T07:05:08.145Z,101707.38
2022-08-11T07:08:38.889Z,101706.66
2022-08-11T07:12:02.484Z,101711.94
2022-08-11T07:14:49.704Z,101713.16
2022-08-11T07:17:21.608Z,101711.41
2022-08-11T07:20:13.633Z,101706.25
2022-08-11T07:23:04.759Z,101710.22
2022-08-11T07:25:52.963Z,101708.00
2022-08-11T07:28:43.555Z,101709.81
2022-08-11T07:31:14.848Z,101712.75
2022-08-11T07:34:07.786Z,101703.66
2022-08-11T07:36:39.417Z,101702.66
2022-08-11T07:39:11.920Z,101698.44
2022-08-11T07:41:40.078Z,101706.31
2022-08-11T07:44:11.643Z,101700.34
2022-08-11T07:46:59.743Z,101695.22
2022-08-11T07:49:48.064Z,101705.09
2022-08-11T07:52:27.909Z,101702.19
2022-08-11T07:54:59.827Z,101704.94
2022-08-11T07:58:15.178Z,101700.78
2022-08-11T08:00:56.488Z,101705.00
2022-08-11T08:03:53.998Z,101702.53
2022-08-11T08:06:40.194Z,101695.59
2022-08-11T08:09:27.120Z,101696.41
2022-08-11T08:12:14.426Z,101698.28
2022-08-11T08:15:01.137Z,101699.97
2022-08-11T08:18:20.903Z,101706.66
2022-08-11T08:20:38.338Z,101697.97
2022-08-11T08:23:07.431Z,101702.56
2022-08-11T08:25:36.576Z,101698.97
2022-08-11T08:28:08.102Z,101698.09
2022-08-11T08:30:51.203Z,101703.16
2022-08-11T08:33:22.411Z,101696.59
2022-08-11T08:36:11.253Z,101695.94
2022-08-11T08:38:41.250Z,101698.81
2022-08-11T08:41:13.399Z,101700.25
2022-08-11T08:43:49.605Z,101702.47
2022-08-11T08:46:21.991Z,101696.75
2022-08-11T08:48:53.148Z,101699.81
2022-08-11T08:52:00.949Z,101705.84
2022-08-11T08:54:31.476Z,101695.31
2022-08-11T08:57:02.380Z,101699.00
2022-08-11T08:59:47.691Z,101693.84
2022-08-11T09:02:19.867Z,101700.97
2022-08-11T09:05:03.777Z,101691.69
2022-08-11T09:07:38.788Z,101687.00
2022-08-11T09:10:10.837Z,101693.63
2022-08-11T09:12:41.483Z,101693.75
2022-08-11T09:15:12.690Z,101700.03
2022-08-11T09:17:43.271Z,101697.22
2022-08-11T09:20:14.439Z,101700.78
2022-08-11T09:26:11.053Z,101692.63
2022-08-11T09:28:42.598Z,101683.03
2022-08-11T09:31:13.564Z,101676.69
2022-08-11T09:33:43.741Z,101672.94
2022-08-11T09:36:31.219Z,101673.69
2022-08-11T09:39:18.521Z,101669.66
2022-08-11T09:42:01.156Z,101674.72
2022-08-11T09:44:49.712Z,101661.69
2022-08-11T09:47:25.544Z,101669.59
2022-08-11T09:50:00.188Z,101670.78
2022-08-11T09:52:30.543Z,101671.16
2022-08-11T09:54:59.672Z,101666.53
2022-08-11T09:57:44.823Z,101670.03
2022-08-11T10:00:14.992Z,101669.34
2022-08-11T10:02:46.991Z,101663.75
2022-08-11T10:05:36.210Z,101664.25
2022-08-11T10:08:05.622Z,101665.22
2022-08-11T10:10:37.677Z,101659.75
2022-08-11T10:14:31.820Z,101661.78
2022-08-11T10:16:14.418Z,101653.94
2022-08-11T10:18:52.523Z,101651.19
2022-08-11T10:21:28.197Z,101653.31
2022-08-11T10:24:15.194Z,101655.22
2022-08-11T10:27:00.058Z,101652.38
2022-08-11T10:29:49.839Z,101652.38
2022-08-11T10:32:49.297Z,101649.88
2022-08-11T10:35:29.455Z,101646.53
2022-08-11T10:38:08.253Z,101643.31
2022-08-11T10:40:39.884Z,101648.19
2022-08-11T10:43:13.277Z,101640.22
2022-08-11T10:46:03.044Z,101631.28
2022-08-11T10:48:37.692Z,101634.88
2022-08-11T10:51:14.591Z,101620.53
2022-08-11T10:54:02.954Z,101621.75
2022-08-11T10:56:50.774Z,101622.44
2022-08-11T10:59:18.816Z,101633.41
2022-08-11T11:01:47.173Z,101633.56
2022-08-11T11:04:17.127Z,101622.84
2022-08-11T11:07:00.294Z,101616.03
2022-08-11T11:09:32.539Z,101609.47
2022-08-11T11:12:22.165Z,101623.28
2022-08-11T11:15:16.117Z,101613.38
2022-08-11T11:18:01.480Z,101614.72
2022-08-11T11:20:36.195Z,101606.59
2022-08-11T11:23:17.695Z,101605.88
2022-08-11T11:26:11.266Z,101606.25
2022-08-11T11:29:04.029Z,101598.03
2022-08-11T11:31:45.592Z,101595.59
2022-08-11T11:34:16.542Z,101587.84
2022-08-11T11:36:50.451Z,101588.69
2022-08-11T11:39:22.260Z,101593.19
2022-08-11T11:41:52.750Z,101592.38
2022-08-11T11:44:22.728Z,101590.91
2022-08-11T11:46:51.386Z,101584.72
2022-08-11T11:51:56.776Z,101590.56
2022-08-11T11:54:27.855Z,101578.16
2022-08-11T11:56:57.977Z,101580.88
2022-08-11T11:59:45.947Z,101578.25
2022-08-11T12:02:16.847Z,101572.75
2022-08-11T12:04:48.721Z,101565.00
2022-08-11T12:07:35.184Z,101562.09
2022-08-11T12:10:05.056Z,101560.66
2022-08-11T12:12:51.049Z,101556.50
2022-08-11T12:16:04.197Z,101548.84
2022-08-11T12:18:08.986Z,101548.13
2022-08-11T12:20:37.800Z,101548.34
2022-08-11T12:23:23.948Z,101548.59
2022-08-11T12:26:26.393Z,101555.25
2022-08-11T12:28:57.937Z,101552.59
2022-08-11T12:31:26.120Z,101549.00
2022-08-11T12:33:55.966Z,101540.88
2022-08-11T12:36:24.275Z,101534.13
2022-08-11T12:38:53.923Z,101539.06
2022-08-11T12:41:41.639Z,101542.38
2022-08-11T12:44:29.358Z,101539.63
2022-08-11T12:47:00.675Z,101522.31
2022-08-11T12:49:49.325Z,101521.59
2022-08-11T12:52:23.591Z,101511.00
2022-08-11T12:54:58.916Z,101509.00
2022-08-11T12:57:52.337Z,101522.66
2022-08-11T13:00:39.241Z,101513.69
2022-08-11T13:03:27.289Z,101509.16
2022-08-11T13:05:57.369Z,101506.91
2022-08-11T13:08:26.931Z,101505.91
2022-08-11T13:11:14.406Z,101498.56
2022-08-11T13:13:54.340Z,101491.94
2022-08-11T13:16:24.630Z,101489.19
2022-08-11T13:18:53.254Z,101492.81
2022-08-11T13:21:22.859Z,101490.06
2022-08-11T13:24:01.819Z,101486.25
2022-08-11T13:26:46.784Z,101485.75
2022-08-11T13:29:20.356Z,101475.94
2022-08-11T13:31:48.090Z,101468.59
2022-08-11T13:34:17.201Z,101474.38
2022-08-11T13:36:46.272Z,101480.84
2022-08-11T13:39:15.049Z,101475.94
2022-08-11T13:41:46.716Z,101476.41
2022-08-11T13:44:23.311Z,101471.19
2022-08-11T13:46:55.208Z,101477.84
2022-08-11T13:49:24.325Z,101477.44
2022-08-11T13:51:53.927Z,101466.00
2022-08-11T13:54:24.108Z,101470.19
2022-08-11T13:56:56.693Z,101466.41
2022-08-11T13:59:29.812Z,101450.34
2022-08-11T14:02:27.953Z,101454.03
2022-08-11T14:04:55.275Z,101456.56
2022-08-11T14:07:25.171Z,101458.75
2022-08-11T14:09:58.436Z,101455.78
2022-08-11T14:12:46.580Z,101452.78
2022-08-11T14:15:19.881Z,101450.03
2022-08-11T14:17:53.661Z,101450.34
2022-08-11T14:20:39.423Z,101443.22
2022-08-11T14:23:11.372Z,101443.28
2022-08-11T14:26:02.858Z,101445.28
2022-08-11T14:28:37.434Z,101444.50
2022-08-11T14:31:09.263Z,101440.41
2022-08-11T14:34:00.006Z,101440.97
2022-08-11T14:36:31.007Z,101439.84
2022-08-11T14:38:59.356Z,101439.00
2022-08-11T14:42:11.894Z,101442.59
2022-08-11T14:44:54.161Z,101430.00
2022-08-11T14:47:25.399Z,101427.53
2022-08-11T14:50:11.567Z,101426.97
2022-08-11T14:52:46.506Z,101433.31
2022-08-11T14:55:33.141Z,101428.63
2022-08-11T14:58:02.081Z,101429.22
2022-08-11T15:00:30.832Z,101427.56
2022-08-11T15:03:11.015Z,101425.66
2022-08-11T15:05:56.453Z,101419.53
2022-08-11T15:08:46.761Z,101417.59
2022-08-11T15:11:30.163Z,101414.53
2022-08-11T15:13:59.737Z,101409.22
2022-08-11T15:16:46.509Z,101403.94
2022-08-11T15:19:15.526Z,101409.75
2022-08-11T15:22:01.948Z,101407.22
2022-08-11T15:24:31.002Z,101403.63
2022-08-11T15:27:19.209Z,101392.84
2022-08-11T15:30:06.367Z,101389.44
2022-08-11T15:32:53.815Z,101385.25
2022-08-11T15:35:53.976Z,101382.75
2022-08-11T15:38:24.058Z,101388.13
2022-08-11T15:41:13.786Z,101382.56
2022-08-11T15:44:02.740Z,101388.25
2022-08-11T15:46:32.962Z,101381.25
2022-08-11T15:49:03.781Z,101377.28
2022-08-11T15:51:35.589Z,101374.78
2022-08-11T15:54:09.589Z,101375.44
2022-08-11T15:56:41.739Z,101382.53
2022-08-11T15:59:42.197Z,101382.47
2022-08-11T16:02:32.144Z,101372.47
2022-08-11T16:05:02.726Z,101361.28
2022-08-11T16:07:40.398Z,101368.22
2022-08-11T16:10:18.892Z,101375.78
2022-08-11T16:13:20.155Z,101363.34
2022-08-11T16:16:09.579Z,101362.72
2022-08-11T16:18:42.637Z,101356.81
2022-08-11T16:21:34.010Z,101349.03
2022-08-11T16:24:04.509Z,101356.88
2022-08-11T16:27:08.157Z,101356.78
2022-08-11T16:29:26.080Z,101351.41
2022-08-11T16:32:13.657Z,101344.41
2022-08-11T16:35:00.735Z,101352.28
2022-08-11T16:37:47.266Z,101342.78
2022-08-11T16:40:15.998Z,101341.06
2022-08-11T16:43:10.718Z,101345.22
2022-08-11T16:45:57.982Z,101354.44
2022-08-11T16:48:35.178Z,101352.44
2022-08-11T16:51:06.265Z,101346.56
2022-08-11T16:53:54.928Z,101341.47
2022-08-11T16:56:26.337Z,101349.69
2022-08-11T16:59:15.307Z,101341.88
2022-08-11T17:01:46.895Z,101345.38
2022-08-11T17:04:39.290Z,101342.53
2022-08-11T17:07:41.479Z,101339.44
2022-08-11T17:10:53.688Z,101340.44
2022-08-11T17:13:29.077Z,101336.16
2022-08-11T17:16:08.981Z,101344.06
2022-08-11T17:18:44.055Z,101343.22
2022-08-11T17:21:26.201Z,101333.00
2022-08-11T17:23:56.077Z,101334.81
2022-08-11T17:26:52.690Z,101338.88
2022-08-11T17:29:24.433Z,101337.19
2022-08-11T17:32:13.050Z,101331.16
2022-08-11T17:35:01.107Z,101332.69
2022-08-11T17:37:31.089Z,101329.38
2022-08-11T17:40:00.981Z,101331.78
2022-08-11T17:42:48.346Z,101325.13
2022-08-11T17:45:36.075Z,101334.66
2022-08-11T17:48:24.472Z,101333.72
2022-08-11T17:50:54.227Z,101334.44
2022-08-11T17:53:40.446Z,101328.97
2022-08-11T17:56:49.142Z,101335.88
2022-08-11T17:59:35.924Z,101336.38
2022-08-11T18:02:20.556Z,101337.84
2022-08-11T18:04:51.908Z,101332.50
2022-08-11T18:07:38.744Z,101336.53
2022-08-11T18:10:26.083Z,101340.84
2022-08-11T18:13:13.790Z,101337.63
2022-08-11T18:16:01.188Z,101338.59
2022-08-11T18:18:47.316Z,101340.63
2022-08-11T18:21:37.602Z,101337.41
2022-08-11T18:24:28.321Z,101335.50
2022-08-11T18:27:17.151Z,101335.84
2022-08-11T18:30:10.392Z,101341.09
2022-08-11T18:33:25.007Z,101347.97
2022-08-11T18:36:08.583Z,101342.47
2022-08-11T18:38:56.767Z,101347.88
2022-08-11T18:41:45.728Z,101344.66
2022-08-11T18:44:34.308Z,101347.13
2022-08-11T18:47:28.900Z,101347.91
2022-08-11T18:50:18.122Z,101353.09
2022-08-11T18:53:12.220Z,101349.47
2022-08-11T18:56:01.611Z,101351.91
2022-08-11T18:58:50.522Z,101358.97
2022-08-11T19:01:37.339Z,101358.91
2022-08-11T19:04:25.238Z,101360.94
2022-08-11T19:07:20.577Z,101370.13
2022-08-11T19:10:07.427Z,101367.50
2022-08-11T19:12:58.862Z,101366.19
2022-08-11T19:15:44.556Z,101369.66
2022-08-11T19:18:33.243Z,101370.00
2022-08-11T19:21:19.619Z,101379.34
2022-08-11T19:24:10.568Z,101383.16
2022-08-11T19:26:57.418Z,101386.00
2022-08-11T19:30:07.644Z,101383.53
2022-08-11T19:32:51.607Z,101391.19
2022-08-11T19:35:38.543Z,101386.84
2022-08-11T19:38:24.198Z,101383.31
2022-08-11T19:41:11.955Z,101389.03
2022-08-11T19:43:59.194Z,101391.78
2022-08-11T19:46:46.098Z,101398.31
2022-08-11T19:49:32.815Z,101390.16
2022-08-11T19:52:18.937Z,101394.56
2022-08-11T19:55:05.678Z,101401.84
2022-08-11T19:57:53.576Z,101401.66
2022-08-11T20:00:40.775Z,101396.44
2022-08-11T20:03:28.983Z,101395.38
2022-08-11T20:06:16.436Z,101400.56
2022-08-11T20:09:04.271Z,101399.47
2022-08-11T20:11:55.135Z,101401.94
2022-08-11T20:14:42.624Z,101405.03
2022-08-11T20:17:32.489Z,101398.53
2022-08-11T20:20:23.866Z,101401.81
2022-08-11T20:23:11.313Z,101405.34
2022-08-11T20:26:08.519Z,101402.94
2022-08-11T20:29:03.269Z,101409.78
2022-08-11T20:31:50.343Z,101403.84
2022-08-11T20:34:36.761Z,101409.63
2022-08-11T20:37:24.794Z,101409.16
2022-08-11T20:40:11.984Z,101400.31
2022-08-11T20:42:59.313Z,101405.91
2022-08-11T20:45:56.706Z,101395.41
2022-08-11T20:48:45.728Z,101401.97
2022-08-11T20:51:33.812Z,101403.13
2022-08-11T20:54:38.289Z,101398.03
2022-08-11T20:57:54.388Z,101407.34
2022-08-11T21:00:39.309Z,101405.78
2022-08-11T21:03:45.342Z,101406.13
2022-08-11T21:06:43.961Z,101405.38
2022-08-11T21:09:44.238Z,101410.09
2022-08-11T21:12:41.118Z,101413.72
2022-08-11T21:15:47.130Z,101415.88
2022-08-11T21:18:35.964Z,101416.16
2022-08-11T21:21:25.756Z,101417.31
2022-08-11T21:24:12.644Z,101414.91
2022-08-11T21:27:05.184Z,101418.72
2022-08-11T21:29:52.949Z,101411.53
2022-08-11T21:32:39.071Z,101407.28
2022-08-11T21:35:26.098Z,101407.34
2022-08-11T21:38:11.491Z,101402.88
2022-08-11T21:41:00.160Z,101404.81
2022-08-11T21:43:50.099Z,101410.91
2022-08-11T21:46:39.484Z,101414.34
2022-08-11T21:49:25.947Z,101409.03
2022-08-11T21:52:11.267Z,101412.66
2022-08-11T21:54:58.161Z,101410.50
2022-08-11T21:57:48.131Z,101421.19
2022-08-11T22:00:36.853Z,101414.28
2022-08-11T22:03:23.430Z,101418.28
2022-08-11T22:06:10.092Z,101410.91
2022-08-11T22:08:55.484Z,101423.06
2022-08-11T22:11:40.881Z,101422.75
2022-08-11T22:14:26.188Z,101422.47
2022-08-11T22:17:12.853Z,101422.16
2022-08-11T22:20:00.511Z,101412.25
2022-08-11T22:22:52.786Z,101420.19
2022-08-11T22:25:39.168Z,101409.59
2022-08-11T22:28:36.531Z,101410.84
2022-08-11T22:31:23.878Z,101415.91
2022-08-11T22:34:10.429Z,101411.03
2022-08-11T22:36:56.986Z,101415.13
2022-08-11T22:39:45.067Z,101409.44
2022-08-11T22:42:45.796Z,101412.00
2022-08-11T22:45:31.635Z,101408.97
2022-08-11T22:48:19.297Z,101412.19
2022-08-11T22:51:06.971Z,101417.09
2022-08-11T22:53:58.217Z,101414.75
2022-08-11T22:56:45.043Z,101404.47
2022-08-11T22:59:31.636Z,101409.38
2022-08-11T23:02:16.997Z,101411.59
2022-08-11T23:05:03.217Z,101412.75
2022-08-11T23:07:52.095Z,101410.63
2022-08-11T23:10:38.721Z,101413.66
2022-08-11T23:13:24.664Z,101413.13
2022-08-11T23:16:11.136Z,101417.22
2022-08-11T23:18:58.390Z,101417.41
2022-08-11T23:21:45.746Z,101416.84
2022-08-11T23:24:33.257Z,101413.81
2022-08-11T23:27:20.873Z,101419.72
2022-08-11T23:30:08.939Z,101411.31
2022-08-11T23:32:55.843Z,101410.84
2022-08-11T23:35:53.657Z,101402.25
2022-08-11T23:38:40.598Z,101411.53
2022-08-11T23:41:27.028Z,101404.97
2022-08-11T23:44:13.861Z,101401.94
2022-08-11T23:47:00.231Z,101393.34
2022-08-11T23:49:46.832Z,101397.41
2022-08-11T23:52:33.949Z,101397.06
2022-08-11T23:55:19.008Z,101397.56
2022-08-11T23:58:05.854Z,101394.53
